Aeroporto :
LOGIN :

Iscrizione | Disclaimer

   EN    FR    IT 

 










Sommario :    VFR   VFR Marginale   IFR   IFR Intensivo   IFR Molto Intensivo
Visibilità : 
Base nubi : 
>= 8 km
>= 3000ft
5 / 8 km
1000 / 3000 ft
1500m / 5 km
500 / 1000 ft
800 / 1500m
200 / 500 ft
< 800m
< 200 ft
Simboli :   Temporali  Nebbia  Neve Forte  Precipitazioni Forti  Vento > 20 kt
SIGMETs :   Varie  Temporali  Ghiacco  Turbolenza  Onda orograficha  Ceneri Vulcaniche






- Altitudine del aeroporto : 915 ft
- Codice IATA : LUG


LSZA - Lugano

ULTIMO METAR :
  • 161220Z VRB03KT 9999 SCT070 30/20 Q1013

METARs OBSOLETI :
  • 161150Z 18004KT 160V230 9999 FEW070 30/20 Q1013
  • 161120Z VRB03KT 9999 SCT070 30/20 Q1013
  • 161050Z AUTO VRB02KT CAVOK 30/19 Q1013
  • 161020Z AUTO VRB03KT 9999 NCD 28/19 Q1013
  • 160950Z 20003KT 130V230 9999 FEW060TCU 28/19 Q1013
  • 160920Z VRB01KT 9999 FEW060TCU 27/19 Q1013
  • 160850Z 20004KT 170V290 9999 FEW075 26/19 Q1013
  • 160820Z 19005KT 9999 FEW075 26/19 Q1013

TAF TAF LSZA
Valido dal 16 a 12 ore il 16 a 21 ore UTC


161125Z 1612/1621 VRB02KT 9999 FEW050
TEMPO 1612/1618 SCT050TCU
ATIS : +41 22 417 40 88



MetMap, La meteo Aeronautica in un colpo d'occhio ! - Copyright ORBIFLY Dicembre 2007 - Disclaimer

ORBIFLY MET'MAP TEAM :

Programmazione e sviluppo : Alexandra Zaïnal
Concezione : Baudouin d'Aumeries
Supporto tecnico e logistico : Manuel Goepfert
Aiuto : Marc-Olivier Méhu
Aiuto per la traduzione : Arnaldo La Scala




FONTI E CREDITI :

   NOAA